San Antonio, TX (78244)

9:22 AM CDT on March 24, 2017 (GMT -0500)
| | Change Station

Elev -9999 ft 0.00 °N, 0.00 °E | Updated 8 minutes ago

Overcast
Overcast
°F
Feels Like °F
N
Wind Variable Wind from North
Gusts mph

Today
High -- | Low -- °F
--% Chance of Precip.
Yesterday
High -- | Low -- °F
Precip. -- in
Pressure 29.94 in
Visibility 10.0 miles
Clouds Scattered Clouds 1700 ft
Mostly Cloudy 2000 ft
Mostly Cloudy 3500 ft
Overcast 4600 ft
Dew Point Not available.
Humidity Not available.
Rainfall --
Snow Depth Not available.
7:32 AM 7:47 PM
Waning Crescent, 15% visible
METAR KRND 241358Z COR 18005KT 10SM SCT017 BKN020 BKN035 OVC046 21/20 A2995 RMK AO2A SLP136 T02050196 COR 1400
Pressure 29.94 in
Visibility 10.0 miles
Clouds Scattered Clouds 1700 ft
Mostly Cloudy 2000 ft
Mostly Cloudy 3500 ft
Overcast 4600 ft
Dew Point Not available.
Humidity Not available.
Rainfall --
Snow Depth Not available.
7:32 AM 7:47 PM
Waning Crescent, 15% visible
METAR KRND 241358Z COR 18005KT 10SM SCT017 BKN020 BKN035 OVC046 21/20 A2995 RMK AO2A SLP136 T02050196 COR 1400

Get Severe Weather Alerts

Thanks for signing up!

Be on the lookout for a verification email in your inbox.

You'll start receiving the daily forecast at 8 AM.

×

10-Day Weather Forecast

Almanac

Astronomy

Mar. 24, 2017 Rise Set
Actual Time
Civil Twilight
Nautical Twilight
Astronomical Twilight
Moon
Length of Visible Light
Length of Day
Tomorrow will be .
, % of the Moon is Illuminated

Today's Extremes

State Highs State Lows

Community

WunderPhotos

Upload Photos

1,962,540 photos uploaded!

WunderBlog® & News

Nearby

Air Quality

  Air Quality AQ Index Pollutant
Not available.

Snow Depth

Station Depth Elevation

Earthquake Activity

City Distance Mag. Time & Date
Minimum magnitude displayed is 2.5.

Earthquake Activity

City Distance Mag. Time & Date
Minimum magnitude displayed is 2.5.

Coastal Water Temperatures

Place Temperature

Stations

Nearby Weather Stations

Station Location Temp. Windchill Dew Point Humidity Wind Precip. Elev Updated Type
                   

Watches & Warnings

There are currently no watches in effect.